Time;durP1;ratioP1;P1;durP2;ratioP2;P2;SDS_P1;SDS_P2;PMS_P1;PMS_P2;Temp;Humidity;BMP_temperature;BMP_pressure;BME280_temperature;BME280_humidity;BME280_pressure;Samples;Min_cycle;Max_cycle;Signal;HPM_P1;HPM_P2
2021/07/10 00:02:58;;;;;;;29.05;13.30;;;15.40;99.90;;;;;;10338973;28;20050;-65
2021/07/10 00:08:00;;;;;;;26.25;13.80;;;15.30;99.90;;;;;;10338612;28;20053;-66
2021/07/10 00:13:02;;;;;;;22.58;12.20;;;15.20;99.90;;;;;;10335672;28;20489;-65
2021/07/10 00:18:04;;;;;;;17.42;10.77;;;15.20;99.90;;;;;;10341235;28;20566;-66
2021/07/10 00:23:05;;;;;;;21.50;11.45;;;15.10;99.90;;;;;;10336667;28;20046;-66
2021/07/10 00:28:10;;;;;;;17.88;11.77;;;15.00;99.90;;;;;;10334568;28;20517;-66
2021/07/10 00:33:11;;;;;;;16.42;10.32;;;15.00;99.90;;;;;;10338506;28;20493;-66
2021/07/10 00:38:13;;;;;;;18.55;10.93;;;14.80;99.90;;;;;;10337755;28;20084;-66
2021/07/10 00:43:15;;;;;;;21.25;12.02;;;14.80;99.90;;;;;;10339732;28;20120;-65
2021/07/10 00:48:17;;;;;;;17.33;10.32;;;14.80;99.90;;;;;;10339116;28;20123;-66
2021/07/10 00:53:18;;;;;;;18.05;10.57;;;14.70;99.90;;;;;;10344149;28;20108;-66
2021/07/10 00:58:20;;;;;;;21.92;10.23;;;14.60;99.90;;;;;;10341689;28;20129;-66
2021/07/10 01:03:22;;;;;;;13.50;9.98;;;14.60;99.90;;;;;;10336324;28;20077;-66
2021/07/10 01:08:24;;;;;;;17.63;11.07;;;14.60;99.90;;;;;;10335703;28;21569;-65
2021/07/10 01:13:26;;;;;;;18.25;10.65;;;14.50;99.90;;;;;;10335995;28;20072;-65
2021/07/10 01:18:28;;;;;;;25.10;11.63;;;14.50;99.90;;;;;;10337605;28;20049;-66
2021/07/10 01:23:29;;;;;;;18.50;10.88;;;14.40;99.90;;;;;;10336935;28;20042;-66
2021/07/10 01:28:31;;;;;;;22.95;11.68;;;14.40;99.90;;;;;;10335950;28;20049;-66
2021/07/10 01:33:32;;;;;;;26.58;11.93;;;14.40;99.90;;;;;;10334670;28;20097;-66
2021/07/10 01:38:34;;;;;;;22.90;10.93;;;14.30;99.90;;;;;;10339498;28;20866;-66
2021/07/10 01:43:36;;;;;;;21.98;9.80;;;14.20;99.90;;;;;;10341320;28;20050;-66
2021/07/10 01:48:38;;;;;;;20.15;9.35;;;14.20;99.90;;;;;;10338193;28;20107;-65
2021/07/10 01:53:39;;;;;;;14.88;9.55;;;14.20;99.90;;;;;;10337125;28;20046;-65
2021/07/10 01:58:41;;;;;;;17.20;10.32;;;14.10;99.90;;;;;;10337849;28;20050;-66
2021/07/10 02:03:43;;;;;;;17.98;10.18;;;14.10;99.90;;;;;;10336636;28;20046;-65
2021/07/10 02:08:45;;;;;;;19.50;9.65;;;14.00;99.90;;;;;;10333902;28;20120;-66
2021/07/10 02:13:47;;;;;;;18.63;9.80;;;14.00;99.90;;;;;;10336427;28;20140;-66
2021/07/10 02:18:48;;;;;;;23.60;11.35;;;13.90;99.90;;;;;;10350450;28;20160;-66
2021/07/10 02:23:51;;;;;;;28.63;11.57;;;13.90;99.90;;;;;;10330387;28;20077;-67
2021/07/10 02:28:53;;;;;;;75.60;13.68;;;13.90;99.90;;;;;;10335488;28;20045;-66
2021/07/10 02:33:54;;;;;;;32.50;12.50;;;13.90;99.90;;;;;;10336034;28;20054;-65
2021/07/10 02:38:57;;;;;;;66.22;14.57;;;13.90;99.90;;;;;;10332490;28;20038;-65
2021/07/10 02:43:58;;;;;;;97.80;15.95;;;13.90;99.90;;;;;;10334752;28;20096;-66
2021/07/10 02:49:00;;;;;;;44.00;14.32;;;13.80;99.90;;;;;;10328901;28;20050;-65
2021/07/10 02:54:02;;;;;;;73.88;15.82;;;13.80;99.90;;;;;;10329368;28;20468;-65
2021/07/10 02:59:04;;;;;;;73.30;15.80;;;13.80;99.90;;;;;;10337860;28;20358;-65
2021/07/10 03:04:05;;;;;;;41.00;14.45;;;13.70;99.90;;;;;;10330104;28;20054;-65
2021/07/10 03:09:07;;;;;;;48.75;14.55;;;13.80;99.90;;;;;;10335590;28;20104;-66
2021/07/10 03:14:09;;;;;;;37.17;12.00;;;13.80;99.90;;;;;;10332442;28;20062;-66
2021/07/10 03:19:10;;;;;;;36.40;13.95;;;13.70;99.90;;;;;;10332754;28;20563;-66
2021/07/10 03:24:12;;;;;;;43.40;12.70;;;13.70;99.90;;;;;;10332755;28;20046;-66
2021/07/10 03:29:14;;;;;;;37.72;12.95;;;13.60;99.90;;;;;;10336316;28;20054;-60
2021/07/10 03:34:15;;;;;;;83.57;13.95;;;13.70;99.90;;;;;;10329795;28;20105;-60
2021/07/10 03:39:17;;;;;;;53.53;13.82;;;13.80;99.90;;;;;;10333919;28;20062;-60
2021/07/10 03:44:19;;;;;;;59.42;16.25;;;13.80;99.90;;;;;;10332874;28;20057;-60
2021/07/10 03:49:20;;;;;;;76.70;14.55;;;13.90;99.90;;;;;;10331601;28;20470;-60
2021/07/10 03:54:22;;;;;;;32.10;13.18;;;13.90;99.90;;;;;;10333506;28;20397;-60
2021/07/10 03:59:24;;;;;;;24.02;12.90;;;13.90;99.90;;;;;;10336211;28;20049;-60
2021/07/10 04:04:26;;;;;;;24.88;12.10;;;14.00;99.90;;;;;;10340922;28;20473;-60
2021/07/10 04:09:27;;;;;;;20.90;11.95;;;14.10;99.90;;;;;;10339107;28;20050;-60
2021/07/10 04:14:31;;;;;;;18.33;11.20;;;14.30;99.90;;;;;;10340680;28;20584;-59
2021/07/10 04:19:33;;;;;;;16.63;10.57;;;14.40;99.90;;;;;;10335736;28;20066;-60
2021/07/10 04:24:34;;;;;;;16.25;10.18;;;14.60;99.90;;;;;;10339685;28;20875;-60
2021/07/10 04:29:36;;;;;;;21.23;11.95;;;14.70;99.90;;;;;;10340075;28;20104;-60
2021/07/10 04:34:38;;;;;;;18.60;9.75;;;14.70;99.90;;;;;;10339523;28;20116;-61
2021/07/10 04:39:40;;;;;;;18.25;9.95;;;14.90;99.90;;;;;;10343556;28;20046;-62
2021/07/10 04:44:43;;;;;;;17.02;10.02;;;15.10;99.90;;;;;;10339006;28;20481;-60
2021/07/10 04:49:44;;;;;;;13.25;9.30;;;15.30;99.90;;;;;;10338992;28;20042;-61
2021/07/10 04:54:46;;;;;;;14.18;10.38;;;15.40;99.90;;;;;;10335276;28;20111;-60
2021/07/10 04:59:48;;;;;;;16.35;10.07;;;15.50;99.90;;;;;;10330782;28;20069;-60
2021/07/10 05:04:54;;;;;;;17.52;9.00;;;15.60;99.90;;;;;;10326871;28;20098;-60
2021/07/10 05:09:55;;;;;;;15.82;9.15;;;15.70;99.90;;;;;;10336628;28;20102;-59
2021/07/10 05:14:57;;;;;;;21.77;9.77;;;15.90;99.90;;;;;;10335042;28;20038;-60
2021/07/10 05:19:59;;;;;;;14.68;9.30;;;15.90;99.90;;;;;;10341982;28;20472;-60
2021/07/10 05:25:02;;;;;;;16.23;9.40;;;16.00;99.90;;;;;;10338765;28;20061;-60
2021/07/10 05:30:10;;;;;;;15.70;8.45;;;16.00;99.90;;;;;;10338259;28;20791;-60
2021/07/10 05:35:15;;;;;;;11.57;8.93;;;16.10;99.90;;;;;;10347738;28;20602;-60
2021/07/10 05:40:17;;;;;;;20.40;12.60;;;16.10;99.90;;;;;;10337192;28;20140;-60
2021/07/10 05:45:20;;;;;;;21.77;10.98;;;16.10;99.90;;;;;;10350747;28;20563;-60
2021/07/10 05:50:22;;;;;;;27.13;11.18;;;15.90;99.90;;;;;;10338927;28;20041;-60
2021/07/10 05:55:23;;;;;;;24.10;11.13;;;15.90;99.90;;;;;;10335616;28;20061;-60
2021/07/10 06:00:25;;;;;;;26.38;11.85;;;16.10;99.90;;;;;;10331977;28;20676;-60
2021/07/10 06:05:27;;;;;;;27.23;11.65;;;16.30;99.90;;;;;;10336820;28;20127;-60
2021/07/10 06:10:29;;;;;;;28.15;12.73;;;16.30;99.90;;;;;;10335999;28;20070;-59
2021/07/10 06:15:31;;;;;;;31.30;13.50;;;16.50;99.90;;;;;;10335111;28;20108;-60
2021/07/10 06:20:34;;;;;;;23.33;12.18;;;16.60;99.90;;;;;;10335049;28;20045;-61
2021/07/10 06:25:37;;;;;;;29.38;12.43;;;16.80;99.90;;;;;;10330682;28;20413;-61
2021/07/10 06:30:39;;;;;;;32.58;13.20;;;17.00;99.90;;;;;;10337892;28;20168;-61
2021/07/10 06:35:41;;;;;;;31.50;12.40;;;17.20;99.90;;;;;;10347063;28;20109;-60
2021/07/10 06:40:43;;;;;;;23.60;11.80;;;16.80;99.90;;;;;;10333616;28;20041;-61
2021/07/10 06:45:47;;;;;;;21.00;11.07;;;17.00;99.90;;;;;;10339093;28;20046;-60
2021/07/10 06:50:50;;;;;;;23.73;12.15;;;17.40;99.90;;;;;;10339399;28;20049;-60
2021/07/10 06:55:52;;;;;;;21.40;11.48;;;17.70;99.90;;;;;;10338920;28;21520;-61
2021/07/10 07:00:53;;;;;;;21.17;11.52;;;18.00;99.90;;;;;;10337368;28;20097;-61
2021/07/10 07:05:55;;;;;;;24.10;12.27;;;18.10;99.90;;;;;;10336028;28;20127;-61
2021/07/10 07:10:57;;;;;;;20.40;12.05;;;18.00;99.90;;;;;;10339203;28;20086;-60
2021/07/10 07:15:58;;;;;;;23.02;12.18;;;18.30;99.90;;;;;;10334902;28;20046;-60
2021/07/10 07:21:00;;;;;;;16.63;11.57;;;18.50;99.90;;;;;;10340267;28;20108;-60
2021/07/10 07:26:04;;;;;;;17.92;12.70;;;18.60;99.90;;;;;;10330118;28;20488;-61
2021/07/10 07:31:07;;;;;;;19.73;12.73;;;18.50;99.90;;;;;;10349511;28;20053;-61
2021/07/10 07:36:09;;;;;;;16.83;12.95;;;18.70;99.90;;;;;;10340237;28;20053;-61
2021/07/10 07:41:10;;;;;;;15.70;11.50;;;18.30;99.90;;;;;;10342385;28;20046;-60
2021/07/10 07:46:14;;;;;;;15.98;12.15;;;18.70;99.90;;;;;;10345888;28;20042;-61
2021/07/10 07:51:16;;;;;;;17.02;13.13;;;18.90;99.90;;;;;;10347801;28;20045;-61
2021/07/10 07:56:18;;;;;;;24.42;14.07;;;18.70;99.90;;;;;;10348577;28;20074;-61
2021/07/10 08:01:20;;;;;;;17.90;13.38;;;18.50;99.90;;;;;;10343676;28;20073;-60
2021/07/10 08:06:22;;;;;;;20.67;14.23;;;18.40;99.90;;;;;;10344258;28;20132;-60
2021/07/10 08:11:24;;;;;;;19.55;12.80;;;18.30;99.90;;;;;;10345784;28;20050;-60
2021/07/10 08:16:26;;;;;;;16.85;13.43;;;18.40;99.90;;;;;;10340176;28;20045;-61
2021/07/10 08:21:29;;;;;;;17.38;11.90;;;18.50;99.90;;;;;;10345906;28;20046;-61
2021/07/10 08:26:31;;;;;;;18.73;12.35;;;18.80;99.90;;;;;;10355984;28;20052;-61
2021/07/10 08:31:34;;;;;;;17.02;12.40;;;19.00;99.90;;;;;;10349589;28;20118;-61
2021/07/10 08:36:37;;;;;;;15.00;10.27;;;19.10;99.90;;;;;;10358593;28;20460;-61
2021/07/10 08:41:39;;;;;;;13.10;8.63;;;19.40;99.90;;;;;;10358935;28;20076;-61
2021/07/10 08:46:41;;;;;;;12.90;8.85;;;19.70;99.90;;;;;;10353663;28;20137;-62
2021/07/10 08:51:45;;;;;;;14.63;9.10;;;19.70;99.90;;;;;;10356415;28;20066;-60
2021/07/10 08:56:47;;;;;;;11.20;7.95;;;20.00;99.90;;;;;;10368355;28;20088;-61
2021/07/10 09:01:53;;;;;;;14.07;7.75;;;20.30;99.90;;;;;;10355199;28;20070;-61
2021/07/10 09:06:55;;;;;;;10.87;7.00;;;20.50;99.90;;;;;;10371974;28;20106;-61
2021/07/10 09:12:01;;;;;;;8.68;6.78;;;20.90;99.90;;;;;;10360732;28;20049;-61
2021/07/10 09:17:19;;;;;;;;;;;21.40;99.90;;;;;;10351167;28;20046;-60
2021/07/10 09:22:30;;;;;;;10.00;6.45;;;21.20;99.90;;;;;;10343719;28;19925;-61
2021/07/10 09:27:48;;;;;;;10.32;5.78;;;21.20;99.90;;;;;;10337508;28;20073;-61
2021/07/10 09:33:16;;;;;;;7.15;5.95;;;21.50;99.90;;;;;;10295296;28;20046;-61
2021/07/10 09:38:34;;;;;;;8.85;5.25;;;21.60;99.90;;;;;;10296371;28;20612;-61
2021/07/10 09:43:38;;;;;;;6.00;4.97;;;22.10;99.90;;;;;;10334340;28;20069;-60
2021/07/10 09:48:40;;;;;;;6.10;3.72;;;21.70;99.90;;;;;;10337941;28;20050;-60
2021/07/10 09:54:00;;;;;;;4.20;3.40;;;22.40;99.90;;;;;;10338037;28;20050;-62
2021/07/10 09:59:24;;;;;;;3.75;3.38;;;22.90;99.90;;;;;;10336722;28;20049;-60
2021/07/10 10:04:28;;;;;;;7.75;3.58;;;23.00;99.20;;;;;;10280516;28;20141;-60
2021/07/10 10:09:30;;;;;;;7.20;3.05;;;23.30;99.30;;;;;;10334880;28;20497;-61
2021/07/10 10:14:35;;;;;;;3.22;2.90;;;23.80;97.40;;;;;;10332990;28;20050;-61
2021/07/10 10:19:37;;;;;;;6.00;2.67;;;23.00;94.30;;;;;;10332548;28;20045;-61
2021/07/10 10:24:41;;;;;;;5.43;2.75;;;23.20;95.80;;;;;;10338794;28;20038;-63
2021/07/10 10:29:43;;;;;;;3.03;2.70;;;23.60;92.60;;;;;;10334869;28;20073;-62
2021/07/10 10:34:47;;;;;;;5.00;3.03;;;23.20;94.30;;;;;;10339679;28;20038;-63
2021/07/10 10:39:50;;;;;;;3.63;2.40;;;24.00;94.10;;;;;;10332050;28;20050;-63
2021/07/10 10:44:56;;;;;;;2.72;2.45;;;23.90;90.90;;;;;;10336274;28;20461;-64
2021/07/10 10:49:58;;;;;;;5.07;1.92;;;24.20;91.30;;;;;;10335514;28;20042;-63
2021/07/10 10:55:04;;;;;;;4.03;2.30;;;23.60;91.90;;;;;;10327901;28;20462;-63
2021/07/10 11:00:35;;;;;;;4.47;3.55;;;24.30;91.60;;;;;;10348036;28;20069;-62
2021/07/10 11:05:46;;;;;;;2.35;1.77;;;24.70;90.70;;;;;;10331757;28;20074;-64
2021/07/10 11:11:08;;;;;;;3.22;2.08;;;24.80;89.40;;;;;;10340699;28;20097;-60
2021/07/10 11:16:18;;;;;;;3.92;1.85;;;24.40;87.70;;;;;;10344735;28;20068;-60
2021/07/10 11:21:34;;;;;;;3.03;1.92;;;24.30;87.10;;;;;;10345648;28;20416;-60
2021/07/10 11:26:35;;;;;;;3.00;2.70;;;24.40;85.50;;;;;;10345085;28;20053;-60
2021/07/10 11:31:37;;;;;;;3.05;2.10;;;24.40;89.40;;;;;;10340545;28;20045;-61
2021/07/10 11:36:52;;;;;;;6.53;2.38;;;24.10;84.70;;;;;;10342763;28;20719;-61
2021/07/10 11:41:58;;;;;;;3.08;2.35;;;24.20;84.30;;;;;;10341157;28;20054;-61
2021/07/10 11:47:00;;;;;;;2.50;2.17;;;24.80;88.70;;;;;;10341810;28;20050;-62
2021/07/10 11:52:03;;;;;;;3.70;2.17;;;24.50;84.70;;;;;;10339347;28;20390;-62
2021/07/10 11:57:07;;;;;;;3.53;1.80;;;25.10;82.80;;;;;;10343080;28;20046;-61
2021/07/10 12:02:21;;;;;;;2.42;2.00;;;25.10;79.60;;;;;;10343641;28;20065;-62
2021/07/10 12:07:23;;;;;;;2.25;1.92;;;24.40;83.40;;;;;;10338851;28;20054;-60
2021/07/10 12:12:25;;;;;;;1.83;1.70;;;24.80;84.80;;;;;;10344094;28;20082;-62
2021/07/10 12:17:27;;;;;;;2.83;1.48;;;25.00;84.50;;;;;;10336218;28;20073;-62
2021/07/10 12:22:28;;;;;;;2.33;2.00;;;25.20;86.50;;;;;;10328822;28;20506;-62
2021/07/10 12:27:31;;;;;;;1.10;0.93;;;25.90;80.70;;;;;;10342654;28;20061;-62
2021/07/10 12:32:33;;;;;;;1.88;1.15;;;26.40;79.20;;;;;;10341958;28;20112;-62
2021/07/10 12:37:35;;;;;;;3.53;1.33;;;26.70;74.50;;;;;;10341053;28;20077;-62
2021/07/10 12:42:37;;;;;;;1.58;1.30;;;25.90;80.10;;;;;;10341287;28;20499;-61
2021/07/10 12:47:39;;;;;;;3.67;1.30;;;25.30;74.10;;;;;;10336706;28;20702;-63
2021/07/10 12:52:46;;;;;;;1.98;1.17;;;25.80;76.70;;;;;;10342103;28;20417;-63
2021/07/10 12:57:56;;;;;;;3.83;0.80;;;26.00;71.80;;;;;;10341678;28;20050;-62
2021/07/10 13:03:10;;;;;;;2.55;1.48;;;26.00;69.50;;;;;;10324095;28;20101;-69
2021/07/10 13:08:22;;;;;;;2.13;1.00;;;26.60;76.70;;;;;;10336020;28;20045;-62
2021/07/10 13:13:34;;;;;;;1.65;0.90;;;26.70;72.00;;;;;;10339130;28;20053;-62
2021/07/10 13:18:47;;;;;;;7.40;2.10;;;26.30;70.00;;;;;;10337689;28;20551;-62
2021/07/10 13:23:58;;;;;;;6.18;2.22;;;26.10;70.30;;;;;;10338459;28;20050;-67
2021/07/10 13:29:16;;;;;;;5.88;1.73;;;26.30;73.70;;;;;;10336475;28;20041;-65
2021/07/10 13:34:22;;;;;;;1.63;0.98;;;26.40;73.00;;;;;;10296051;28;20056;-65
2021/07/10 13:39:29;;;;;;;1.63;1.38;;;26.60;70.20;;;;;;10339353;28;20059;-66
2021/07/10 13:44:34;;;;;;;2.78;1.10;;;26.10;73.50;;;;;;10338938;28;20053;-66
2021/07/10 13:50:01;;;;;;;2.10;1.35;;;26.30;73.80;;;;;;10340099;28;20058;-65
2021/07/10 13:55:06;;;;;;;1.98;1.30;;;26.40;73.00;;;;;;10328476;28;20046;-66
2021/07/10 14:00:17;;;;;;;2.47;1.02;;;26.30;73.60;;;;;;10329888;28;20050;-65
2021/07/10 14:05:27;;;;;;;1.35;0.90;;;26.30;73.10;;;;;;10343279;28;20475;-65
2021/07/10 14:10:35;;;;;;;1.27;1.10;;;26.30;69.90;;;;;;10325082;28;20049;-65
2021/07/10 14:15:39;;;;;;;1.15;1.05;;;26.80;72.80;;;;;;10335498;28;20132;-68
2021/07/10 14:20:45;;;;;;;4.82;2.63;;;27.50;71.90;;;;;;10332573;28;20891;-69
2021/07/10 14:25:58;;;;;;;1.50;0.90;;;27.90;70.30;;;;;;10336008;28;20053;-70
2021/07/10 14:31:00;;;;;;;1.98;0.90;;;28.30;68.80;;;;;;10337481;28;20114;-68
2021/07/10 14:36:05;;;;;;;1.13;0.90;;;28.90;68.50;;;;;;10347801;28;20061;-69
2021/07/10 14:41:08;;;;;;;3.55;0.93;;;29.60;62.90;;;;;;10316833;28;20120;-71
2021/07/10 14:46:10;;;;;;;4.20;1.13;;;29.50;64.90;;;;;;10331136;28;20425;-70
2021/07/10 14:51:12;;;;;;;2.70;1.02;;;28.70;65.30;;;;;;10333210;28;20512;-70
2021/07/10 14:56:14;;;;;;;1.92;1.00;;;28.40;66.80;;;;;;10331983;28;20123;-69
2021/07/10 15:01:16;;;;;;;2.75;1.20;;;28.00;67.50;;;;;;10330210;28;20046;-70
2021/07/10 15:06:17;;;;;;;4.07;1.13;;;27.20;67.50;;;;;;10341804;28;20042;-71
2021/07/10 15:11:20;;;;;;;2.35;1.00;;;27.20;70.20;;;;;;10340721;28;20077;-69
2021/07/10 15:16:22;;;;;;;1.63;0.80;;;27.30;68.50;;;;;;10331172;28;20061;-69
2021/07/10 15:21:25;;;;;;;3.00;0.70;;;28.30;66.00;;;;;;10332882;28;20053;-70
2021/07/10 15:26:30;;;;;;;1.10;1.00;;;29.00;67.80;;;;;;10330363;28;20616;-64
2021/07/10 15:31:32;;;;;;;2.30;0.77;;;28.60;65.80;;;;;;10335347;28;20054;-65
2021/07/10 15:36:34;;;;;;;0.85;0.70;;;28.20;67.20;;;;;;10347500;28;20046;-67
2021/07/10 15:41:36;;;;;;;2.00;0.90;;;27.90;67.20;;;;;;10333359;28;20049;-65
2021/07/10 15:46:41;;;;;;;1.35;1.00;;;27.50;68.10;;;;;;10321101;28;20051;-66
2021/07/10 15:51:43;;;;;;;;;;;27.20;68.30;;;;;;10341918;28;20152;-66
2021/07/10 15:56:45;;;;;;;1.35;1.00;;;26.80;70.70;;;;;;10335855;28;19929;-66
2021/07/10 16:01:47;;;;;;;1.83;1.27;;;26.80;71.60;;;;;;10339485;28;20108;-66
2021/07/10 16:06:49;;;;;;;1.10;0.90;;;27.20;69.40;;;;;;10341125;28;20053;-65
2021/07/10 16:11:51;;;;;;;1.25;0.80;;;26.90;68.40;;;;;;10339555;28;20153;-65
2021/07/10 16:16:52;;;;;;;2.78;1.15;;;26.40;69.70;;;;;;10341259;28;20058;-66
2021/07/10 16:21:54;;;;;;;1.70;1.58;;;26.50;71.70;;;;;;10339406;28;20053;-65
2021/07/10 16:26:56;;;;;;;1.95;0.90;;;26.40;72.10;;;;;;10342301;28;20117;-66
2021/07/10 16:31:58;;;;;;;2.00;1.15;;;26.70;73.40;;;;;;10345860;28;20536;-66
2021/07/10 16:37:00;;;;;;;3.25;0.90;;;27.10;70.80;;;;;;10337717;28;20101;-65
2021/07/10 16:42:02;;;;;;;3.95;0.85;;;27.90;70.10;;;;;;10338827;28;20053;-65
2021/07/10 16:47:06;;;;;;;3.45;0.90;;;28.40;68.40;;;;;;10336525;28;20073;-67
2021/07/10 16:52:07;;;;;;;1.38;0.73;;;28.90;67.20;;;;;;10338074;28;20050;-65
2021/07/10 16:57:09;;;;;;;1.40;0.90;;;29.20;64.90;;;;;;10339034;28;20386;-67
2021/07/10 17:02:11;;;;;;;0.80;0.60;;;29.40;64.00;;;;;;10336838;28;20057;-67
2021/07/10 17:07:13;;;;;;;1.20;0.80;;;29.40;59.60;;;;;;10337273;28;20081;-68
2021/07/10 17:12:15;;;;;;;0.80;0.57;;;29.50;61.40;;;;;;10340536;28;20120;-64
2021/07/10 17:17:16;;;;;;;1.45;0.73;;;29.90;61.40;;;;;;10341866;28;20038;-66
2021/07/10 17:22:19;;;;;;;1.05;0.70;;;30.20;61.10;;;;;;10340330;28;20073;-66
2021/07/10 17:27:21;;;;;;;2.72;0.63;;;30.30;60.40;;;;;;10338553;28;20054;-65
2021/07/10 17:32:22;;;;;;;1.42;0.68;;;30.30;61.50;;;;;;10337575;28;20085;-64
2021/07/10 17:37:24;;;;;;;3.65;0.70;;;30.20;62.40;;;;;;10333234;28;20293;-65
2021/07/10 17:42:26;;;;;;;0.80;0.60;;;30.30;62.60;;;;;;10337610;28;20058;-65
2021/07/10 17:47:28;;;;;;;2.97;1.45;;;29.60;62.00;;;;;;10338245;28;20061;-67
2021/07/10 17:52:29;;;;;;;3.08;0.77;;;29.50;63.00;;;;;;10334418;28;20891;-67
2021/07/10 17:57:31;;;;;;;1.00;0.70;;;29.60;63.40;;;;;;10341078;28;20115;-67
2021/07/10 18:02:33;;;;;;;3.72;0.90;;;29.50;64.10;;;;;;10335840;28;20065;-66
2021/07/10 18:07:35;;;;;;;1.08;0.82;;;29.30;65.80;;;;;;10328206;28;20048;-66
2021/07/10 18:12:37;;;;;;;6.50;0.90;;;29.00;68.20;;;;;;10339511;28;20060;-64
2021/07/10 18:17:39;;;;;;;0.95;0.70;;;28.80;68.40;;;;;;10336726;28;20038;-63
2021/07/10 18:22:44;;;;;;;1.48;0.70;;;27.90;69.50;;;;;;10323686;28;20053;-70
2021/07/10 18:27:46;;;;;;;1.43;0.70;;;27.30;71.00;;;;;;10337881;28;20051;-65
2021/07/10 18:32:48;;;;;;;2.78;1.08;;;26.80;73.10;;;;;;10329182;28;20046;-68
2021/07/10 18:37:50;;;;;;;1.52;0.90;;;26.20;75.30;;;;;;10334423;28;20109;-68
2021/07/10 18:42:53;;;;;;;1.80;0.80;;;25.70;76.10;;;;;;10334241;28;20052;-65
2021/07/10 18:47:55;;;;;;;1.25;0.82;;;25.30;78.30;;;;;;10334675;28;20081;-65
2021/07/10 18:52:57;;;;;;;1.25;0.85;;;24.90;79.70;;;;;;10336358;28;20042;-63
2021/07/10 18:58:01;;;;;;;2.47;1.00;;;24.50;81.70;;;;;;10336756;28;20482;-64
2021/07/10 19:03:03;;;;;;;3.20;0.90;;;24.30;82.70;;;;;;10327404;28;20121;-64
2021/07/10 19:08:04;;;;;;;3.83;1.73;;;24.10;83.60;;;;;;10337891;28;20089;-65
2021/07/10 19:13:07;;;;;;;2.63;1.42;;;23.90;85.00;;;;;;10334575;28;20101;-64
2021/07/10 19:18:08;;;;;;;3.00;1.02;;;23.70;86.00;;;;;;10335591;28;20577;-64
2021/07/10 19:23:11;;;;;;;4.40;1.60;;;23.50;88.20;;;;;;10332434;28;20064;-65
2021/07/10 19:28:12;;;;;;;2.22;0.90;;;23.30;89.20;;;;;;10331794;28;20104;-64
2021/07/10 19:33:14;;;;;;;3.65;1.20;;;23.20;90.40;;;;;;10335317;28;20486;-64
2021/07/10 19:38:16;;;;;;;2.63;1.15;;;23.10;91.10;;;;;;10337670;28;20054;-64
2021/07/10 19:43:18;;;;;;;2.88;1.30;;;22.90;92.20;;;;;;10344398;28;20054;-65
2021/07/10 19:48:21;;;;;;;2.90;1.23;;;22.70;92.70;;;;;;10344213;28;20057;-64
2021/07/10 19:53:23;;;;;;;3.85;1.42;;;22.60;93.90;;;;;;10346454;28;20128;-63
2021/07/10 19:58:24;;;;;;;4.38;2.05;;;22.40;94.60;;;;;;10342008;28;20053;-73
2021/07/10 20:03:26;;;;;;;5.70;1.63;;;22.30;95.60;;;;;;10343927;28;20046;-69
2021/07/10 20:08:27;;;;;;;6.85;1.70;;;22.20;96.30;;;;;;10338702;28;20053;-67
2021/07/10 20:13:29;;;;;;;2.97;1.88;;;22.10;98.20;;;;;;10341004;28;20079;-69
2021/07/10 20:18:31;;;;;;;4.35;2.15;;;21.90;97.60;;;;;;10335910;28;20122;-70
2021/07/10 20:23:33;;;;;;;4.18;2.47;;;21.90;98.50;;;;;;10343878;28;20453;-70
2021/07/10 20:28:35;;;;;;;1.63;1.52;;;21.80;99.40;;;;;;10344010;28;20111;-72
2021/07/10 20:33:36;;;;;;;4.65;2.45;;;21.50;99.80;;;;;;10353678;28;20054;-73
2021/07/10 20:38:38;;;;;;;4.57;2.85;;;21.20;99.90;;;;;;10354070;28;20077;-71
2021/07/10 20:43:43;;;;;;;4.40;3.47;;;20.90;99.90;;;;;;10343018;28;20045;-71
2021/07/10 20:48:46;;;;;;;6.35;2.55;;;20.80;99.90;;;;;;10342669;28;20144;-71
2021/07/10 20:53:48;;;;;;;5.18;3.00;;;20.70;99.90;;;;;;10340265;28;20101;-70
2021/07/10 20:58:50;;;;;;;3.65;2.70;;;20.60;99.90;;;;;;10341116;28;20037;-70
2021/07/10 21:03:52;;;;;;;3.90;2.83;;;20.60;99.90;;;;;;10338873;28;20103;-69
2021/07/10 21:08:54;;;;;;;2.67;1.70;;;20.50;99.90;;;;;;10338137;28;20050;-69
2021/07/10 21:13:55;;;;;;;2.85;1.75;;;20.50;99.90;;;;;;10341494;28;20149;-71
2021/07/10 21:18:57;;;;;;;2.92;0.80;;;20.50;99.90;;;;;;10335399;28;20559;-70
2021/07/10 21:23:59;;;;;;;0.85;0.68;;;19.70;99.90;;;;;;10339341;28;20054;-70
2021/07/10 21:29:01;;;;;;;2.47;1.27;;;18.80;99.90;;;;;;10335583;28;20046;-69
2021/07/10 21:34:04;;;;;;;2.90;1.40;;;18.10;99.90;;;;;;10337873;28;20084;-69
2021/07/10 21:39:06;;;;;;;4.53;1.77;;;17.70;99.90;;;;;;10338005;28;20104;-71
2021/07/10 21:44:09;;;;;;;6.82;2.00;;;17.50;99.90;;;;;;10340556;28;20103;-68
2021/07/10 21:49:11;;;;;;;5.47;2.50;;;17.30;99.90;;;;;;10332994;28;20037;-68
2021/07/10 21:54:13;;;;;;;8.32;2.25;;;16.90;99.90;;;;;;10337348;28;20055;-69
2021/07/10 21:59:15;;;;;;;0.00;0.00;;;16.90;99.90;;;;;;10335019;28;20053;-67
2021/07/10 22:04:17;;;;;;;0.00;0.00;;;16.70;99.90;;;;;;10335581;28;20046;-70
2021/07/10 22:09:21;;;;;;;0.00;0.00;;;16.60;99.90;;;;;;10336123;28;20046;-69
2021/07/10 22:14:23;;;;;;;0.00;0.00;;;16.70;99.90;;;;;;10332509;28;20041;-70
2021/07/10 22:19:25;;;;;;;0.00;0.00;;;16.70;99.90;;;;;;10334451;28;20096;-70
2021/07/10 22:24:27;;;;;;;0.00;0.00;;;16.90;99.90;;;;;;10337874;28;20100;-70
2021/07/10 22:29:29;;;;;;;0.00;0.00;;;17.00;99.90;;;;;;10333744;28;20088;-68
2021/07/10 22:34:30;;;;;;;0.00;0.00;;;17.00;99.90;;;;;;10336736;28;20437;-68
2021/07/10 22:39:33;;;;;;;0.00;0.00;;;17.10;99.90;;;;;;10333077;28;20050;-67
2021/07/10 22:44:34;;;;;;;0.00;0.00;;;17.00;99.90;;;;;;10343181;28;20481;-68
2021/07/10 22:49:36;;;;;;;0.00;0.00;;;17.00;99.90;;;;;;10336667;28;20051;-68
2021/07/10 22:54:38;;;;;;;0.00;0.00;;;17.10;99.90;;;;;;10336851;28;20467;-68
2021/07/10 22:59:40;;;;;;;0.00;0.00;;;16.90;99.90;;;;;;10322767;28;20073;-68
2021/07/10 23:04:41;;;;;;;0.00;0.00;;;16.90;99.90;;;;;;10333097;28;20491;-67
2021/07/10 23:09:43;;;;;;;0.00;0.00;;;17.00;99.90;;;;;;10346113;28;20101;-67
2021/07/10 23:14:45;;;;;;;0.00;0.00;;;17.00;99.90;;;;;;10343313;28;20057;-67
2021/07/10 23:19:46;;;;;;;0.00;0.00;;;16.80;99.90;;;;;;10341785;28;20120;-67
2021/07/10 23:24:48;;;;;;;0.00;0.00;;;16.80;99.90;;;;;;10343458;28;20826;-67
2021/07/10 23:29:50;;;;;;;0.00;0.00;;;16.90;99.90;;;;;;10342416;28;20073;-68
2021/07/10 23:34:51;;;;;;;0.00;0.00;;;17.00;99.90;;;;;;10356848;28;20057;-68
2021/07/10 23:39:53;;;;;;;0.00;0.00;;;16.80;99.90;;;;;;10344612;28;20054;-69
2021/07/10 23:44:55;;;;;;;0.00;0.00;;;16.70;99.90;;;;;;10342703;28;20682;-68
2021/07/10 23:49:57;;;;;;;0.00;0.00;;;16.70;99.90;;;;;;10340398;28;20664;-68
2021/07/10 23:54:59;;;;;;;0.00;0.00;;;16.80;99.90;;;;;;10345050;28;20051;-70
